createdAt,value
2023-05-06T00:01:48.887Z,43.97
2023-05-06T00:04:19.597Z,44.04
2023-05-06T00:06:50.243Z,43.95
2023-05-06T00:09:21.285Z,44.02
2023-05-06T00:11:51.867Z,43.96
2023-05-06T00:14:22.539Z,43.89
2023-05-06T00:16:53.050Z,44.02
2023-05-06T00:19:23.577Z,43.91
2023-05-06T00:21:55.993Z,43.95
2023-05-06T00:24:26.518Z,43.94
2023-05-06T00:26:58.582Z,43.84
2023-05-06T00:29:29.117Z,43.95
2023-05-06T00:31:59.810Z,43.87
2023-05-06T00:34:30.431Z,43.90
2023-05-06T00:37:00.972Z,43.82
2023-05-06T00:39:32.151Z,43.86
2023-05-06T00:42:03.625Z,43.86
2023-05-06T00:44:34.244Z,43.80
2023-05-06T00:47:05.724Z,43.85
2023-05-06T00:49:36.300Z,43.91
2023-05-06T00:52:07.034Z,43.68
2023-05-06T00:54:37.787Z,43.70
2023-05-06T00:57:08.445Z,43.76
2023-05-06T00:59:39.815Z,43.83
2023-05-06T01:02:10.500Z,43.70
2023-05-06T01:04:42.147Z,43.75
2023-05-06T01:07:17.952Z,43.88
2023-05-06T01:09:52.587Z,43.82
2023-05-06T01:12:29.182Z,43.60
2023-05-06T01:15:06.611Z,43.69
2023-05-06T01:17:38.081Z,43.58
2023-05-06T01:20:12.090Z,43.72
2023-05-06T01:22:42.584Z,43.62
2023-05-06T01:25:20.639Z,43.57
2023-05-06T01:27:51.677Z,43.66
2023-05-06T01:30:24.249Z,43.65
2023-05-06T01:33:01.920Z,43.67
2023-05-06T01:35:36.601Z,43.57
2023-05-06T01:38:12.574Z,43.55
2023-05-06T01:40:43.878Z,43.46
2023-05-06T01:43:16.088Z,43.54
2023-05-06T01:45:53.215Z,43.63
2023-05-06T01:48:25.938Z,43.61
2023-05-06T01:50:56.662Z,43.58
2023-05-06T01:53:27.258Z,43.65
2023-05-06T01:55:57.865Z,43.52
2023-05-06T01:58:28.499Z,43.45
2023-05-06T02:00:58.972Z,43.48
2023-05-06T02:03:29.566Z,43.51
2023-05-06T02:06:00.596Z,43.43
2023-05-06T02:08:33.038Z,43.59
2023-05-06T02:11:03.785Z,43.46
2023-05-06T02:13:35.143Z,43.44
2023-05-06T02:16:05.974Z,43.54
2023-05-06T02:18:36.669Z,43.42
2023-05-06T02:21:07.192Z,43.47
2023-05-06T02:23:37.819Z,43.56
2023-05-06T02:26:08.456Z,43.43
2023-05-06T02:28:39.023Z,43.40
2023-05-06T02:31:09.614Z,43.50
2023-05-06T02:33:40.268Z,43.46
2023-05-06T02:36:10.864Z,43.55
2023-05-06T02:38:41.437Z,43.50
2023-05-06T02:41:12.045Z,43.48
2023-05-06T02:43:42.591Z,43.54
2023-05-06T02:46:13.788Z,43.47
2023-05-06T02:48:44.442Z,43.46
2023-05-06T02:51:15.126Z,43.45
2023-05-06T02:53:45.716Z,43.30
2023-05-06T02:56:16.392Z,43.53
2023-05-06T02:58:47.030Z,43.36
2023-05-06T03:01:17.593Z,43.43
2023-05-06T03:03:48.276Z,43.33
2023-05-06T03:06:18.889Z,43.53
2023-05-06T03:08:50.063Z,43.51
2023-05-06T03:11:21.283Z,43.44
2023-05-06T03:13:51.909Z,43.45
2023-05-06T03:16:22.687Z,43.36
2023-05-06T03:18:54.763Z,43.32
2023-05-06T03:21:25.454Z,43.49
2023-05-06T03:23:56.184Z,43.54
2023-05-06T03:26:27.637Z,43.24
2023-05-06T03:28:58.155Z,43.36
2023-05-06T03:31:28.973Z,43.46
2023-05-06T03:33:59.708Z,43.44
2023-05-06T03:36:31.756Z,43.29
2023-05-06T03:39:02.740Z,43.48
2023-05-06T03:41:34.751Z,43.28
2023-05-06T03:44:06.086Z,43.41
2023-05-06T03:46:36.773Z,43.51
2023-05-06T03:49:07.452Z,43.41
2023-05-06T03:51:38.543Z,43.47
2023-05-06T03:54:09.701Z,43.46
2023-05-06T03:56:40.341Z,43.60
2023-05-06T03:59:11.083Z,43.44
2023-05-06T04:01:42.174Z,43.26
2023-05-06T04:04:13.482Z,43.41
2023-05-06T04:06:44.316Z,43.43
2023-05-06T04:09:14.877Z,43.45
2023-05-06T04:11:45.715Z,43.23
2023-05-06T04:14:17.348Z,43.51
2023-05-06T04:16:47.878Z,43.43
2023-05-06T04:19:18.718Z,43.48
2023-05-06T04:21:49.963Z,43.49
2023-05-06T04:24:21.604Z,43.55
2023-05-06T04:26:52.155Z,43.65
2023-05-06T04:29:23.248Z,43.63
2023-05-06T04:32:01.411Z,43.48
2023-05-06T04:34:33.104Z,43.49
2023-05-06T04:37:05.740Z,43.58
2023-05-06T04:39:47.570Z,43.53
2023-05-06T04:42:18.234Z,43.57
2023-05-06T04:44:54.530Z,43.56
2023-05-06T04:47:28.159Z,43.64
2023-05-06T04:49:58.936Z,43.45
2023-05-06T04:52:30.775Z,43.43
2023-05-06T04:55:01.308Z,43.36
2023-05-06T04:57:33.722Z,43.55
2023-05-06T05:00:07.155Z,43.47
2023-05-06T05:02:38.958Z,43.49
2023-05-06T05:05:10.751Z,43.50
2023-05-06T05:07:42.785Z,43.55
2023-05-06T05:10:13.429Z,43.48
2023-05-06T05:12:44.011Z,43.29
2023-05-06T05:15:15.223Z,43.61
2023-05-06T05:17:45.885Z,43.43
2023-05-06T05:20:17.683Z,43.56
2023-05-06T05:22:48.121Z,43.73
2023-05-06T05:25:18.828Z,43.60
2023-05-06T05:27:49.736Z,43.57
2023-05-06T05:30:21.838Z,43.75
2023-05-06T05:32:53.098Z,43.66
2023-05-06T05:35:23.796Z,43.74
2023-05-06T05:37:55.033Z,43.81
2023-05-06T05:40:26.417Z,43.74
2023-05-06T05:42:57.251Z,43.76
2023-05-06T05:45:33.421Z,43.74
2023-05-06T05:48:04.201Z,43.77
2023-05-06T05:50:34.812Z,43.86
2023-05-06T05:53:05.680Z,43.85
2023-05-06T05:55:39.766Z,43.92
2023-05-06T05:58:10.809Z,43.90
2023-05-06T06:00:41.871Z,43.97
2023-05-06T06:03:14.262Z,43.93
2023-05-06T06:05:44.949Z,44.01
2023-05-06T06:08:18.496Z,43.96
2023-05-06T06:10:49.639Z,43.99
2023-05-06T06:13:24.208Z,44.05
2023-05-06T06:15:57.063Z,44.11
2023-05-06T06:18:27.770Z,44.04
2023-05-06T06:20:58.390Z,44.15
2023-05-06T06:23:28.986Z,44.07
2023-05-06T06:25:59.733Z,44.12
2023-05-06T06:28:30.261Z,44.27
2023-05-06T06:31:02.117Z,44.34
2023-05-06T06:33:32.709Z,44.30
2023-05-06T06:36:03.361Z,44.19
2023-05-06T06:38:34.095Z,44.30
2023-05-06T06:41:05.153Z,44.39
2023-05-06T06:43:36.000Z,44.32
2023-05-06T06:46:19.322Z,44.44
2023-05-06T06:48:49.888Z,44.58
2023-05-06T06:51:20.458Z,44.57
2023-05-06T06:53:51.031Z,44.50
2023-05-06T06:56:22.255Z,44.58
2023-05-06T06:58:53.395Z,44.62
2023-05-06T07:01:24.251Z,44.70
2023-05-06T07:03:54.888Z,44.70
2023-05-06T07:06:25.595Z,44.79
2023-05-06T07:08:56.505Z,44.70
2023-05-06T07:11:27.092Z,44.94
2023-05-06T07:13:57.930Z,44.87
2023-05-06T07:16:28.661Z,45.00
2023-05-06T07:18:59.336Z,44.98
2023-05-06T07:21:32.337Z,45.09
2023-05-06T07:24:02.935Z,44.96
2023-05-06T07:26:36.307Z,45.03
2023-05-06T07:29:06.883Z,45.03
2023-05-06T07:31:37.466Z,45.07
2023-05-06T07:34:08.708Z,45.18
2023-05-06T07:36:43.281Z,45.17
2023-05-06T07:39:15.200Z,44.99
2023-05-06T07:41:47.036Z,45.16
2023-05-06T07:44:17.652Z,45.14
2023-05-06T07:46:48.365Z,45.11
2023-05-06T07:49:18.960Z,45.13
2023-05-06T07:51:49.469Z,45.22
2023-05-06T07:54:20.008Z,45.20
2023-05-06T07:56:50.521Z,45.11
2023-05-06T07:59:21.036Z,45.14
2023-05-06T08:01:51.600Z,45.29
2023-05-06T08:04:22.235Z,45.31
2023-05-06T08:06:53.805Z,45.19
2023-05-06T08:09:24.352Z,45.27
2023-05-06T08:11:54.927Z,45.26
2023-05-06T08:14:26.165Z,45.26
2023-05-06T08:16:56.747Z,45.40
2023-05-06T08:19:27.662Z,45.37
2023-05-06T08:21:58.748Z,45.47
2023-05-06T08:24:29.381Z,45.41
2023-05-06T08:26:59.916Z,45.31
2023-05-06T08:29:30.510Z,45.37
2023-05-06T08:32:01.696Z,45.53
2023-05-06T08:34:32.364Z,45.37
2023-05-06T08:37:03.001Z,45.57
2023-05-06T08:39:34.128Z,45.56
2023-05-06T08:42:05.452Z,45.58
2023-05-06T08:44:36.043Z,45.55
2023-05-06T08:47:06.681Z,45.59
2023-05-06T08:49:37.344Z,45.66
2023-05-06T08:52:08.083Z,45.51
2023-05-06T08:54:39.326Z,45.69
2023-05-06T08:57:12.755Z,45.47
2023-05-06T08:59:43.703Z,45.34
2023-05-06T09:02:14.330Z,45.39
2023-05-06T09:04:45.830Z,45.34
2023-05-06T09:07:16.378Z,45.47
2023-05-06T09:09:46.980Z,45.38
2023-05-06T09:12:17.527Z,45.32
2023-05-06T09:14:51.023Z,45.38
2023-05-06T09:17:24.484Z,45.52
2023-05-06T09:19:57.136Z,45.49
2023-05-06T09:22:29.158Z,45.62
2023-05-06T09:24:59.931Z,45.52
2023-05-06T09:27:31.312Z,45.67
2023-05-06T09:30:03.444Z,45.56
2023-05-06T09:32:35.627Z,45.57
2023-05-06T09:35:08.702Z,45.58
2023-05-06T09:37:39.736Z,45.41
2023-05-06T09:40:11.956Z,45.15
2023-05-06T09:42:44.718Z,45.29
2023-05-06T09:45:17.122Z,45.32
2023-05-06T09:47:49.707Z,45.39
2023-05-06T09:50:21.885Z,45.36
2023-05-06T09:52:52.487Z,45.44
2023-05-06T09:55:26.835Z,45.49
2023-05-06T09:57:57.776Z,45.30
2023-05-06T10:00:30.088Z,45.26
2023-05-06T10:03:02.104Z,45.17
2023-05-06T10:05:33.631Z,45.42
2023-05-06T10:08:05.060Z,45.24
2023-05-06T10:10:36.149Z,45.31
2023-05-06T10:13:06.843Z,45.25
2023-05-06T10:15:39.146Z,45.50
2023-05-06T10:18:10.490Z,45.31
2023-05-06T10:20:42.478Z,45.36
2023-05-06T10:23:14.924Z,45.04
2023-05-06T10:25:46.952Z,45.16
2023-05-06T10:28:26.560Z,45.02
2023-05-06T10:31:01.024Z,45.07
2023-05-06T10:33:32.139Z,44.89
2023-05-06T10:36:10.100Z,45.12
2023-05-06T10:38:42.782Z,45.00
2023-05-06T10:41:13.752Z,44.87
2023-05-06T10:43:45.495Z,44.98
2023-05-06T10:46:16.662Z,44.92
2023-05-06T10:49:00.752Z,44.86
2023-05-06T10:51:31.676Z,44.86
2023-05-06T10:54:06.913Z,44.88
2023-05-06T10:56:38.125Z,44.96
2023-05-06T10:59:09.526Z,44.94
2023-05-06T11:01:41.211Z,45.07
2023-05-06T11:04:12.634Z,45.05
2023-05-06T11:06:44.705Z,44.91
2023-05-06T11:09:19.240Z,44.90
2023-05-06T11:11:51.265Z,45.06
2023-05-06T11:14:28.952Z,44.91
2023-05-06T11:17:00.069Z,44.93
2023-05-06T11:19:31.484Z,44.83
2023-05-06T11:22:02.745Z,44.78
2023-05-06T11:24:39.356Z,44.82
2023-05-06T11:27:10.576Z,44.92
2023-05-06T11:29:44.246Z,45.00
2023-05-06T11:32:21.824Z,45.01
2023-05-06T11:34:55.724Z,44.87
2023-05-06T11:37:30.142Z,45.08
2023-05-06T11:40:00.686Z,45.15
2023-05-06T11:42:31.275Z,45.25
2023-05-06T11:45:03.333Z,45.28
2023-05-06T11:47:33.912Z,45.25
2023-05-06T11:50:07.734Z,45.38
2023-05-06T11:52:38.393Z,45.39
2023-05-06T11:55:11.189Z,45.64
2023-05-06T11:57:47.071Z,45.63
2023-05-06T12:00:18.894Z,45.56
2023-05-06T12:02:49.588Z,45.74
2023-05-06T12:05:23.545Z,46.07
2023-05-06T12:07:54.249Z,46.09
2023-05-06T12:10:24.794Z,46.03
2023-05-06T12:12:55.642Z,46.33
2023-05-06T12:15:26.676Z,46.13
2023-05-06T12:17:57.867Z,46.26
2023-05-06T12:20:28.699Z,46.59
2023-05-06T12:23:09.089Z,46.32
2023-05-06T12:25:40.185Z,46.67
2023-05-06T12:28:17.067Z,46.92
2023-05-06T12:30:47.880Z,46.47
2023-05-06T12:33:18.454Z,46.85
2023-05-06T12:35:49.121Z,46.88
2023-05-06T12:38:19.630Z,46.87
2023-05-06T12:40:55.781Z,46.77
2023-05-06T12:43:31.482Z,46.94
2023-05-06T12:46:06.427Z,47.36
2023-05-06T12:48:37.156Z,47.03
2023-05-06T12:51:21.147Z,47.41
2023-05-06T12:53:51.782Z,47.32
2023-05-06T12:56:22.690Z,47.36
2023-05-06T12:59:00.427Z,47.39
2023-05-06T13:01:31.668Z,47.47
2023-05-06T13:04:02.498Z,47.60
2023-05-06T13:06:32.955Z,47.51
2023-05-06T13:09:04.760Z,47.98
2023-05-06T13:11:35.278Z,47.76
2023-05-06T13:14:05.842Z,47.80
2023-05-06T13:16:36.555Z,47.69
2023-05-06T13:19:08.215Z,47.74
2023-05-06T13:21:42.584Z,47.85
2023-05-06T13:24:13.158Z,47.71
2023-05-06T13:26:43.748Z,48.07
2023-05-06T13:29:14.226Z,47.74
2023-05-06T13:31:44.769Z,48.06
2023-05-06T13:34:15.321Z,48.11
2023-05-06T13:36:46.899Z,48.01
2023-05-06T13:39:17.751Z,48.19
2023-05-06T13:41:50.225Z,47.83
2023-05-06T13:44:21.557Z,47.94
2023-05-06T13:46:52.738Z,47.89
2023-05-06T13:49:23.402Z,48.37
2023-05-06T13:51:54.497Z,48.10
2023-05-06T13:54:25.184Z,48.05
2023-05-06T13:56:55.708Z,48.10
2023-05-06T13:59:26.393Z,48.00
2023-05-06T14:01:57.469Z,47.95
2023-05-06T14:04:28.002Z,47.74
2023-05-06T14:06:59.326Z,47.74
2023-05-06T14:09:29.910Z,47.96
2023-05-06T14:12:00.694Z,47.99
2023-05-06T14:14:31.280Z,47.98
2023-05-06T14:17:01.869Z,47.85
2023-05-06T14:19:32.570Z,47.87
2023-05-06T14:22:03.080Z,47.70
2023-05-06T14:24:33.628Z,47.75
2023-05-06T14:27:04.267Z,47.77
2023-05-06T14:29:34.944Z,47.80
2023-05-06T14:32:05.762Z,47.77
2023-05-06T14:34:37.220Z,47.76
2023-05-06T14:37:08.041Z,47.78
2023-05-06T14:39:38.650Z,47.56
2023-05-06T14:42:09.190Z,47.71
2023-05-06T14:44:39.674Z,47.65
2023-05-06T14:47:10.248Z,47.67
2023-05-06T14:49:41.031Z,47.53
2023-05-06T14:52:11.666Z,47.65
2023-05-06T14:54:42.768Z,47.67
2023-05-06T14:57:13.460Z,47.75
2023-05-06T14:59:43.889Z,47.70
2023-05-06T15:02:14.401Z,47.58
2023-05-06T15:04:46.052Z,47.55
2023-05-06T15:07:16.633Z,47.67
2023-05-06T15:09:47.295Z,47.65
2023-05-06T15:12:17.929Z,47.70
2023-05-06T15:14:48.624Z,47.80
2023-05-06T15:17:19.130Z,47.59
2023-05-06T15:19:49.711Z,47.50
2023-05-06T15:22:20.175Z,47.49
2023-05-06T15:24:50.591Z,47.43
2023-05-06T15:27:21.164Z,47.45
2023-05-06T15:29:51.786Z,47.49
2023-05-06T15:32:22.357Z,47.44
2023-05-06T15:34:52.805Z,47.33
2023-05-06T15:37:23.981Z,47.47
2023-05-06T15:39:54.523Z,47.48
2023-05-06T15:42:25.044Z,47.53
2023-05-06T15:44:55.554Z,47.42
2023-05-06T15:47:26.148Z,47.48
2023-05-06T15:49:56.787Z,47.40
2023-05-06T15:52:27.318Z,47.43
2023-05-06T15:54:59.417Z,47.27
2023-05-06T15:57:31.221Z,47.47
2023-05-06T16:00:01.856Z,47.25
2023-05-06T16:02:35.416Z,47.23
2023-05-06T16:05:06.257Z,47.29
2023-05-06T16:07:36.813Z,47.18
2023-05-06T16:10:08.844Z,47.10
2023-05-06T16:12:39.599Z,47.11
2023-05-06T16:15:11.121Z,47.23
2023-05-06T16:17:41.926Z,47.16
2023-05-06T16:20:13.447Z,47.06
2023-05-06T16:22:50.401Z,47.09
2023-05-06T16:25:20.948Z,47.21
2023-05-06T16:27:51.453Z,47.01
2023-05-06T16:30:22.017Z,46.97
2023-05-06T16:32:52.727Z,47.11
2023-05-06T16:35:23.270Z,46.93
2023-05-06T16:37:53.903Z,46.88
2023-05-06T16:40:24.428Z,46.87
2023-05-06T16:42:55.271Z,47.01
2023-05-06T16:45:25.821Z,46.98
2023-05-06T16:47:56.405Z,46.97
2023-05-06T16:50:27.037Z,47.17
2023-05-06T16:52:57.738Z,47.20
2023-05-06T16:55:28.235Z,47.23
2023-05-06T16:58:00.914Z,47.22
2023-05-06T17:00:31.925Z,47.01
2023-05-06T17:03:02.684Z,46.97
2023-05-06T17:05:33.236Z,46.95
2023-05-06T17:08:04.582Z,46.90
2023-05-06T17:10:35.101Z,46.88
2023-05-06T17:13:06.101Z,46.88
2023-05-06T17:15:37.606Z,46.75
2023-05-06T17:18:08.226Z,46.91
2023-05-06T17:20:51.468Z,46.90
2023-05-06T17:23:26.324Z,46.82
2023-05-06T17:25:58.239Z,46.75
2023-05-06T17:28:28.886Z,46.77
2023-05-06T17:30:59.393Z,46.75
2023-05-06T17:33:29.931Z,46.88
2023-05-06T17:36:00.488Z,46.87
2023-05-06T17:38:31.046Z,47.00
2023-05-06T17:41:01.578Z,46.92
2023-05-06T17:43:33.697Z,46.99
2023-05-06T17:46:04.265Z,46.85
2023-05-06T17:48:35.501Z,47.01
2023-05-06T17:51:06.094Z,46.87
2023-05-06T17:53:37.662Z,46.84
2023-05-06T17:56:08.445Z,46.93
2023-05-06T17:58:38.951Z,47.05
2023-05-06T18:01:09.618Z,46.99
2023-05-06T18:03:41.346Z,46.99
2023-05-06T18:06:12.199Z,47.07
2023-05-06T18:08:42.699Z,46.87
2023-05-06T18:11:13.230Z,46.94
2023-05-06T18:13:43.728Z,47.11
2023-05-06T18:16:14.464Z,46.99
2023-05-06T18:18:45.135Z,47.01
2023-05-06T18:21:15.631Z,47.03
2023-05-06T18:23:46.238Z,47.20
2023-05-06T18:26:27.239Z,47.18
2023-05-06T18:29:07.287Z,47.06
2023-05-06T18:31:37.818Z,47.15
2023-05-06T18:34:08.374Z,47.20
2023-05-06T18:36:38.926Z,47.32
2023-05-06T18:39:09.459Z,47.34
2023-05-06T18:41:40.057Z,47.38
2023-05-06T18:44:10.949Z,47.40
2023-05-06T18:46:41.485Z,47.40
2023-05-06T18:49:14.192Z,47.32
2023-05-06T18:51:44.918Z,47.40
2023-05-06T18:54:16.337Z,47.44
2023-05-06T18:56:47.370Z,47.59
2023-05-06T18:59:18.584Z,47.58
2023-05-06T19:01:49.063Z,47.63
2023-05-06T19:04:19.557Z,47.58
2023-05-06T19:06:51.672Z,47.81
2023-05-06T19:09:22.266Z,47.65
2023-05-06T19:11:52.721Z,47.78
2023-05-06T19:14:25.480Z,47.91
2023-05-06T19:16:56.228Z,47.88
2023-05-06T19:19:26.792Z,48.04
2023-05-06T19:21:57.576Z,47.94
2023-05-06T19:24:28.212Z,48.10
2023-05-06T19:26:58.683Z,48.13
2023-05-06T19:29:29.245Z,48.15
2023-05-06T19:32:00.378Z,48.00
2023-05-06T19:34:31.053Z,48.21
2023-05-06T19:37:01.550Z,48.08
2023-05-06T19:39:32.253Z,48.04
2023-05-06T19:42:02.919Z,48.02
2023-05-06T19:44:33.472Z,48.17
2023-05-06T19:47:03.944Z,48.07
2023-05-06T19:49:34.465Z,48.03
2023-05-06T19:52:05.251Z,48.08
2023-05-06T19:54:35.792Z,48.03
2023-05-06T19:57:06.427Z,48.32
2023-05-06T19:59:36.921Z,48.18
2023-05-06T20:02:09.822Z,48.18
2023-05-06T20:04:40.667Z,48.25
2023-05-06T20:07:12.501Z,48.23
2023-05-06T20:09:42.989Z,48.18
2023-05-06T20:12:13.439Z,48.17
2023-05-06T20:14:43.995Z,48.32
2023-05-06T20:17:14.492Z,48.54
2023-05-06T20:19:45.134Z,48.47
2023-05-06T20:22:16.904Z,48.43
2023-05-06T20:24:47.791Z,48.54
2023-05-06T20:27:18.308Z,48.43
2023-05-06T20:29:51.725Z,48.55
2023-05-06T20:32:22.298Z,48.50
2023-05-06T20:34:53.348Z,48.54
2023-05-06T20:37:24.513Z,48.61
2023-05-06T20:39:55.221Z,48.50
2023-05-06T20:42:25.747Z,48.56
2023-05-06T20:44:56.308Z,48.69
2023-05-06T20:47:27.275Z,48.62
2023-05-06T20:49:58.376Z,48.66
2023-05-06T20:52:28.901Z,48.51
2023-05-06T20:55:00.373Z,48.69
2023-05-06T20:57:30.996Z,48.74
2023-05-06T21:00:01.572Z,48.78
2023-05-06T21:02:34.322Z,48.72
2023-05-06T21:05:08.920Z,48.69
2023-05-06T21:07:39.825Z,48.78
2023-05-06T21:10:11.857Z,48.80
2023-05-06T21:12:47.524Z,48.83
2023-05-06T21:15:18.099Z,48.77
2023-05-06T21:17:49.248Z,48.79
2023-05-06T21:20:20.309Z,48.83
2023-05-06T21:22:50.926Z,48.84
2023-05-06T21:25:21.925Z,48.95
2023-05-06T21:27:53.272Z,49.04
2023-05-06T21:30:23.813Z,48.98
2023-05-06T21:32:54.435Z,49.03
2023-05-06T21:35:25.611Z,49.03
2023-05-06T21:37:56.056Z,48.99
2023-05-06T21:40:26.651Z,49.11
2023-05-06T21:42:57.202Z,49.09
2023-05-06T21:45:28.341Z,49.13
2023-05-06T21:47:58.918Z,49.18
2023-05-06T21:50:31.730Z,49.04
2023-05-06T21:53:03.713Z,49.02
2023-05-06T21:55:34.386Z,48.88
2023-05-06T21:58:04.966Z,49.01
2023-05-06T22:00:35.512Z,49.21
2023-05-06T22:03:06.787Z,49.16
2023-05-06T22:05:37.418Z,49.35
2023-05-06T22:08:07.899Z,49.15
2023-05-06T22:10:40.531Z,49.33
2023-05-06T22:13:11.144Z,49.29
2023-05-06T22:15:42.056Z,49.12
2023-05-06T22:18:14.311Z,49.32
2023-05-06T22:20:44.983Z,49.14
2023-05-06T22:23:16.512Z,49.26
2023-05-06T22:25:47.346Z,49.20
2023-05-06T22:28:18.012Z,49.29
2023-05-06T22:30:49.146Z,49.33
2023-05-06T22:33:19.652Z,49.39
2023-05-06T22:35:50.125Z,49.50
2023-05-06T22:38:20.754Z,49.35
2023-05-06T22:40:51.540Z,49.41
2023-05-06T22:43:22.023Z,49.38
2023-05-06T22:45:52.900Z,49.51
2023-05-06T22:48:23.884Z,49.49
2023-05-06T22:50:55.210Z,49.49
2023-05-06T22:53:26.117Z,49.60
2023-05-06T22:55:57.086Z,49.53
2023-05-06T22:58:27.669Z,49.57
2023-05-06T23:00:58.212Z,49.53
2023-05-06T23:03:29.435Z,49.59
2023-05-06T23:06:00.070Z,49.59
2023-05-06T23:08:30.762Z,49.60
2023-05-06T23:11:02.015Z,49.49
2023-05-06T23:13:36.118Z,49.66
2023-05-06T23:16:07.878Z,49.74
2023-05-06T23:18:38.474Z,49.57
2023-05-06T23:21:09.487Z,49.69
2023-05-06T23:23:40.125Z,49.68
2023-05-06T23:26:10.641Z,49.62
2023-05-06T23:28:41.960Z,49.45
2023-05-06T23:31:12.541Z,49.68
2023-05-06T23:33:43.120Z,49.75
2023-05-06T23:36:13.674Z,49.92
2023-05-06T23:38:44.756Z,50.03
2023-05-06T23:41:15.278Z,49.85
2023-05-06T23:43:46.020Z,49.86
2023-05-06T23:46:17.068Z,49.97
2023-05-06T23:48:47.916Z,49.84
2023-05-06T23:51:18.418Z,49.89
2023-05-06T23:53:49.046Z,49.92
2023-05-06T23:56:20.694Z,50.00
2023-05-06T23:58:51.282Z,49.93
